createdAt,value
2023-02-25T00:01:08.347Z,78.17
2023-02-25T00:03:57.569Z,77.77
2023-02-25T00:06:46.644Z,77.11
2023-02-25T00:09:35.186Z,76.53
2023-02-25T00:12:25.054Z,74.99
2023-02-25T00:15:13.576Z,75.44
2023-02-25T00:18:02.100Z,73.20
2023-02-25T00:20:50.890Z,73.50
2023-02-25T00:23:39.327Z,72.74
2023-02-25T00:26:27.874Z,72.81
2023-02-25T00:29:18.455Z,71.70
2023-02-25T00:32:07.047Z,71.98
2023-02-25T00:34:55.682Z,71.99
2023-02-25T00:37:44.210Z,72.81
2023-02-25T00:40:32.711Z,73.01
2023-02-25T00:43:22.111Z,73.36
2023-02-25T00:46:12.463Z,72.38
2023-02-25T00:49:01.684Z,73.54
2023-02-25T00:51:50.208Z,73.46
2023-02-25T00:54:39.533Z,73.03
2023-02-25T00:57:28.002Z,73.63
2023-02-25T01:00:17.379Z,73.43
2023-02-25T01:03:07.383Z,73.24
2023-02-25T01:05:55.903Z,73.59
2023-02-25T01:08:44.714Z,73.79
2023-02-25T01:11:35.618Z,73.94
2023-02-25T01:14:25.492Z,74.47
2023-02-25T01:17:13.958Z,74.77
2023-02-25T01:20:11.261Z,74.31
2023-02-25T01:22:59.781Z,74.75
2023-02-25T01:25:48.293Z,74.15
2023-02-25T01:28:36.811Z,74.09
2023-02-25T01:31:29.449Z,73.13
2023-02-25T01:34:18.939Z,72.25
2023-02-25T01:37:08.904Z,72.31
2023-02-25T01:39:57.425Z,72.59
2023-02-25T01:42:46.744Z,71.85
2023-02-25T01:45:35.653Z,71.97
2023-02-25T01:48:26.421Z,71.78
2023-02-25T01:51:14.875Z,72.08
2023-02-25T01:54:06.692Z,72.32
2023-02-25T01:56:56.473Z,71.84
2023-02-25T01:59:45.299Z,71.41
2023-02-25T02:02:34.294Z,71.63
2023-02-25T02:05:25.218Z,71.99
2023-02-25T02:08:14.054Z,72.92
2023-02-25T02:11:05.806Z,72.33
2023-02-25T02:13:56.306Z,72.78
2023-02-25T02:17:02.247Z,71.60
2023-02-25T02:20:11.449Z,72.67
2023-02-25T02:23:21.970Z,72.48
2023-02-25T02:26:38.904Z,72.25
2023-02-25T02:30:05.093Z,71.89
2023-02-25T02:32:58.306Z,71.41
2023-02-25T02:35:51.392Z,72.00
2023-02-25T02:38:45.524Z,72.26
2023-02-25T02:41:36.640Z,72.00
2023-02-25T02:44:28.505Z,72.33
2023-02-25T02:47:21.658Z,72.16
2023-02-25T02:50:15.295Z,73.17
2023-02-25T02:53:07.793Z,73.14
2023-02-25T02:55:57.700Z,73.28
2023-02-25T02:58:49.043Z,74.27
2023-02-25T03:01:41.618Z,74.16
2023-02-25T03:04:32.209Z,74.17
2023-02-25T03:07:23.177Z,74.12
2023-02-25T03:10:15.451Z,74.39
2023-02-25T03:13:04.694Z,72.36
2023-02-25T03:15:53.565Z,71.44
2023-02-25T03:18:45.241Z,69.70
2023-02-25T03:21:39.641Z,70.70
2023-02-25T03:24:34.121Z,70.85
2023-02-25T03:27:27.781Z,71.31
2023-02-25T03:30:23.061Z,71.92
2023-02-25T03:33:15.335Z,71.87
2023-02-25T03:36:09.028Z,72.27
2023-02-25T03:38:59.654Z,71.71
2023-02-25T03:41:52.697Z,72.36
2023-02-25T03:44:47.314Z,72.56
2023-02-25T03:47:37.107Z,73.27
2023-02-25T03:50:28.983Z,73.69
2023-02-25T03:53:17.557Z,73.42
2023-02-25T03:56:08.562Z,74.45
2023-02-25T03:58:58.377Z,74.57
2023-02-25T04:01:49.625Z,75.23
2023-02-25T04:04:38.250Z,75.00
2023-02-25T04:07:27.162Z,75.29
2023-02-25T04:10:17.988Z,75.33
2023-02-25T04:13:06.465Z,75.40
2023-02-25T04:15:56.499Z,75.29
2023-02-25T04:18:45.079Z,75.53
2023-02-25T04:21:35.847Z,76.30
2023-02-25T04:24:24.318Z,76.20
2023-02-25T04:27:15.529Z,76.79
2023-02-25T04:30:04.281Z,77.27
2023-02-25T04:32:54.272Z,77.34
2023-02-25T04:35:42.776Z,77.92
2023-02-25T04:38:31.258Z,78.76
2023-02-25T04:41:19.857Z,78.88
2023-02-25T04:44:09.624Z,79.25
2023-02-25T04:46:58.139Z,79.54
2023-02-25T04:49:47.989Z,79.31
2023-02-25T04:52:36.766Z,79.25
2023-02-25T04:55:25.257Z,79.21
2023-02-25T04:58:14.068Z,79.14
2023-02-25T05:01:03.516Z,79.18
2023-02-25T05:03:56.750Z,79.19
2023-02-25T05:06:46.718Z,79.41
2023-02-25T05:09:35.985Z,78.34
2023-02-25T05:12:24.482Z,78.18
2023-02-25T05:15:13.289Z,77.99
2023-02-25T05:18:01.959Z,78.43
2023-02-25T05:20:50.387Z,78.34
2023-02-25T05:23:40.362Z,77.54
2023-02-25T05:26:28.879Z,75.49
2023-02-25T05:29:17.568Z,74.38
2023-02-25T05:32:06.632Z,73.96
2023-02-25T05:34:55.159Z,73.22
2023-02-25T05:37:43.612Z,73.08
2023-02-25T05:40:33.443Z,72.38
2023-02-25T05:43:22.353Z,72.64
2023-02-25T05:46:13.136Z,72.68
2023-02-25T05:49:01.668Z,71.50
2023-02-25T05:51:50.242Z,70.77
2023-02-25T05:54:38.747Z,70.71
2023-02-25T05:57:28.895Z,71.53
2023-02-25T06:00:21.450Z,71.00
2023-02-25T06:03:10.051Z,70.65
2023-02-25T06:05:58.587Z,70.69
2023-02-25T06:08:47.898Z,70.92
2023-02-25T06:11:36.951Z,70.48
2023-02-25T06:14:26.908Z,70.51
2023-02-25T06:17:15.336Z,70.26
2023-02-25T06:20:05.930Z,70.18
2023-02-25T06:22:54.457Z,70.42
2023-02-25T06:25:42.998Z,70.83
2023-02-25T06:28:31.881Z,70.45
2023-02-25T06:31:23.685Z,70.06
2023-02-25T06:34:12.260Z,69.33
2023-02-25T06:37:00.831Z,69.15
2023-02-25T06:39:49.443Z,69.58
2023-02-25T06:42:37.914Z,69.07
2023-02-25T06:45:26.529Z,69.21
2023-02-25T06:48:16.338Z,68.92
2023-02-25T06:51:09.125Z,68.40
2023-02-25T06:53:57.558Z,67.26
2023-02-25T06:56:46.241Z,67.43
2023-02-25T06:59:35.653Z,68.35
2023-02-25T07:02:24.174Z,68.20
2023-02-25T07:05:13.992Z,67.47
2023-02-25T07:08:02.516Z,67.55
2023-02-25T07:10:50.996Z,68.60
2023-02-25T07:13:39.512Z,71.43
2023-02-25T07:16:29.914Z,68.56
2023-02-25T07:19:18.412Z,67.34
2023-02-25T07:22:09.890Z,66.20
2023-02-25T07:24:58.475Z,67.87
2023-02-25T07:27:47.081Z,67.58
2023-02-25T07:30:36.918Z,67.67
2023-02-25T07:33:25.387Z,66.75
2023-02-25T07:36:14.287Z,66.78
2023-02-25T07:39:04.760Z,66.18
2023-02-25T07:41:53.584Z,65.84
2023-02-25T07:44:43.145Z,65.67
2023-02-25T07:47:31.674Z,64.41
2023-02-25T07:50:20.371Z,62.34
2023-02-25T07:53:08.838Z,60.80
2023-02-25T07:55:58.644Z,60.15
2023-02-25T07:58:47.172Z,60.99
2023-02-25T08:01:35.768Z,60.48
2023-02-25T08:04:24.548Z,60.33
2023-02-25T08:07:13.043Z,57.71
2023-02-25T08:10:01.722Z,57.19
2023-02-25T08:12:51.588Z,58.06
2023-02-25T08:15:42.016Z,57.62
2023-02-25T08:18:30.583Z,58.69
2023-02-25T08:21:21.725Z,58.76
2023-02-25T08:24:10.408Z,59.96
2023-02-25T08:26:59.162Z,58.35
2023-02-25T08:29:49.310Z,57.37
2023-02-25T08:32:38.250Z,57.85
2023-02-25T08:35:27.316Z,58.77
2023-02-25T08:38:16.173Z,59.12
2023-02-25T08:41:05.038Z,58.23
2023-02-25T08:43:55.300Z,58.25
2023-02-25T08:46:45.889Z,58.01
2023-02-25T08:49:34.350Z,59.31
2023-02-25T08:52:22.967Z,59.06
2023-02-25T08:55:14.916Z,59.13
2023-02-25T08:58:03.467Z,63.89
2023-02-25T09:00:55.135Z,59.30
2023-02-25T09:03:53.272Z,58.84
2023-02-25T09:06:41.908Z,59.13
2023-02-25T09:09:30.589Z,64.43
2023-02-25T09:12:19.094Z,59.27
2023-02-25T09:15:09.191Z,60.24
2023-02-25T09:17:57.623Z,60.04
2023-02-25T09:20:51.978Z,60.23
2023-02-25T09:23:40.494Z,59.98
2023-02-25T09:26:29.226Z,59.65
2023-02-25T09:29:17.987Z,60.33
2023-02-25T09:32:06.959Z,60.61
2023-02-25T09:34:56.075Z,60.33
2023-02-25T09:37:45.937Z,61.53
2023-02-25T09:40:34.583Z,62.26
2023-02-25T09:43:26.761Z,61.58
2023-02-25T09:46:19.461Z,62.19
2023-02-25T09:49:13.147Z,61.72
2023-02-25T09:52:05.864Z,61.76
2023-02-25T09:54:57.408Z,60.71
2023-02-25T09:57:48.945Z,59.63
2023-02-25T10:00:42.606Z,59.89
2023-02-25T10:03:42.455Z,60.13
2023-02-25T10:06:34.097Z,59.72
2023-02-25T10:09:30.478Z,59.81
2023-02-25T10:12:28.145Z,60.38
2023-02-25T10:15:26.073Z,59.33
2023-02-25T10:18:22.716Z,60.21
2023-02-25T10:21:19.552Z,59.63
2023-02-25T10:24:20.370Z,60.33
2023-02-25T10:27:13.084Z,59.70
2023-02-25T10:30:06.929Z,60.80
2023-02-25T10:32:55.654Z,60.01
2023-02-25T10:35:44.191Z,59.54
2023-02-25T10:38:39.523Z,58.67
2023-02-25T10:41:28.320Z,59.58
2023-02-25T10:44:16.817Z,59.15
2023-02-25T10:47:07.885Z,57.06
2023-02-25T10:50:14.739Z,55.98
2023-02-25T10:53:05.211Z,58.56
2023-02-25T10:55:54.826Z,57.41
2023-02-25T10:58:47.126Z,58.21
2023-02-25T11:01:37.389Z,58.42
2023-02-25T11:04:31.271Z,59.53
2023-02-25T11:07:32.955Z,59.19
2023-02-25T11:10:23.919Z,59.17
2023-02-25T11:13:29.013Z,59.11
2023-02-25T11:16:18.939Z,58.97
2023-02-25T11:19:15.437Z,57.09
2023-02-25T11:22:10.826Z,56.46
2023-02-25T11:25:00.629Z,57.22
2023-02-25T11:27:55.955Z,57.65
2023-02-25T11:30:45.786Z,57.70
2023-02-25T11:33:36.491Z,57.52
2023-02-25T11:36:26.556Z,58.01
2023-02-25T11:39:22.108Z,57.00
2023-02-25T11:42:23.097Z,56.75
2023-02-25T11:45:18.177Z,57.69
2023-02-25T11:48:17.536Z,57.69
2023-02-25T11:51:14.031Z,57.94
2023-02-25T11:54:14.112Z,58.07
2023-02-25T11:57:09.641Z,60.16
2023-02-25T12:00:11.373Z,62.71
2023-02-25T12:03:25.209Z,64.00
2023-02-25T12:06:24.099Z,65.14
2023-02-25T12:09:37.070Z,66.34
2023-02-25T12:12:59.467Z,66.67
2023-02-25T12:16:14.271Z,68.14
2023-02-25T12:19:29.359Z,68.80
2023-02-25T12:22:37.414Z,68.25
2023-02-25T12:25:33.773Z,67.47
2023-02-25T12:28:45.441Z,66.24
2023-02-25T12:31:56.931Z,65.38
2023-02-25T12:35:06.793Z,66.04
2023-02-25T12:38:34.023Z,66.62
2023-02-25T12:41:37.722Z,66.19
2023-02-25T12:44:44.349Z,64.77
2023-02-25T12:47:46.847Z,64.49
2023-02-25T12:50:43.673Z,63.53
2023-02-25T12:53:46.706Z,61.82
2023-02-25T12:57:04.499Z,62.43
2023-02-25T13:00:07.539Z,61.40
2023-02-25T13:03:21.153Z,61.57
2023-02-25T13:06:37.742Z,61.37
2023-02-25T13:09:49.027Z,60.43
2023-02-25T13:12:57.664Z,60.54
2023-02-25T13:15:53.981Z,60.48
2023-02-25T13:18:50.864Z,59.48
2023-02-25T13:21:54.995Z,58.84
2023-02-25T13:24:49.074Z,58.10
2023-02-25T13:28:02.932Z,57.67
2023-02-25T13:30:58.042Z,57.01
2023-02-25T13:33:58.782Z,56.13
2023-02-25T13:36:59.181Z,56.66
2023-02-25T13:40:06.232Z,56.67
2023-02-25T13:43:00.830Z,56.09
2023-02-25T13:46:07.161Z,56.70
2023-02-25T13:49:26.072Z,55.20
2023-02-25T13:52:27.746Z,55.06
2023-02-25T13:55:35.170Z,53.92
2023-02-25T13:58:54.748Z,53.64
2023-02-25T14:01:51.728Z,55.20
2023-02-25T14:04:57.093Z,54.64
2023-02-25T14:08:07.912Z,54.30
2023-02-25T14:11:06.530Z,54.62
2023-02-25T14:14:19.914Z,53.28
2023-02-25T14:17:24.492Z,54.16
2023-02-25T14:20:26.447Z,54.15
2023-02-25T14:23:18.086Z,54.50
2023-02-25T14:26:23.612Z,54.65
2023-02-25T14:29:22.287Z,54.13
2023-02-25T14:32:27.185Z,54.03
2023-02-25T14:35:30.144Z,54.46
2023-02-25T14:38:27.343Z,53.10
2023-02-25T14:41:29.363Z,53.39
2023-02-25T14:44:20.953Z,53.70
2023-02-25T14:47:12.450Z,54.25
2023-02-25T14:50:05.742Z,54.81
2023-02-25T14:53:06.458Z,55.37
2023-02-25T14:56:09.392Z,53.92
2023-02-25T14:59:28.684Z,54.66
2023-02-25T15:02:27.195Z,54.35
2023-02-25T15:05:45.590Z,55.20
2023-02-25T15:09:03.740Z,53.96
2023-02-25T15:12:16.669Z,53.76
2023-02-25T15:15:21.292Z,53.27
2023-02-25T15:18:27.951Z,53.98
2023-02-25T15:21:39.710Z,53.09
2023-02-25T15:24:40.756Z,53.60
2023-02-25T15:27:44.261Z,52.76
2023-02-25T15:31:06.074Z,52.41
2023-02-25T15:33:56.093Z,52.79
2023-02-25T15:36:48.517Z,52.41
2023-02-25T15:39:53.998Z,53.09
2023-02-25T15:42:47.953Z,54.72
2023-02-25T15:45:39.407Z,55.92
2023-02-25T15:48:32.960Z,56.19
2023-02-25T15:51:42.112Z,56.16
2023-02-25T15:54:51.721Z,57.82
2023-02-25T15:57:41.815Z,58.08
2023-02-25T16:01:00.836Z,57.79
2023-02-25T16:03:49.494Z,57.80
2023-02-25T16:06:40.644Z,57.88
2023-02-25T16:09:29.241Z,57.84
2023-02-25T16:12:19.440Z,58.27
2023-02-25T16:15:12.495Z,59.46
2023-02-25T16:18:09.904Z,59.44
2023-02-25T16:21:01.552Z,59.19
2023-02-25T16:23:50.151Z,59.34
2023-02-25T16:26:45.119Z,58.39
2023-02-25T16:29:49.747Z,57.82
2023-02-25T16:32:44.484Z,58.87
2023-02-25T16:35:35.641Z,60.17
2023-02-25T16:38:31.763Z,61.62
2023-02-25T16:41:22.345Z,63.68
2023-02-25T16:44:18.331Z,66.24
2023-02-25T16:47:22.426Z,67.40
2023-02-25T16:50:15.828Z,67.93
2023-02-25T16:53:05.118Z,67.06
2023-02-25T16:55:59.387Z,67.33
2023-02-25T16:59:00.870Z,64.83
2023-02-25T17:01:55.453Z,66.22
2023-02-25T17:04:47.903Z,67.49
2023-02-25T17:07:36.869Z,67.41
2023-02-25T17:10:27.933Z,68.44
2023-02-25T17:13:20.334Z,69.27
2023-02-25T17:16:15.068Z,68.87
2023-02-25T17:19:05.102Z,68.80
2023-02-25T17:21:56.668Z,68.40
2023-02-25T17:24:45.921Z,68.01
2023-02-25T17:27:35.115Z,67.04
2023-02-25T17:30:42.590Z,66.93
2023-02-25T17:33:32.048Z,67.14
2023-02-25T17:36:23.715Z,67.38
2023-02-25T17:39:16.646Z,67.16
2023-02-25T17:42:34.753Z,67.96
2023-02-25T17:45:44.228Z,68.41
2023-02-25T17:48:41.074Z,68.31
2023-02-25T17:51:33.474Z,68.99
2023-02-25T17:54:25.721Z,69.35
2023-02-25T17:57:17.841Z,69.23
2023-02-25T18:00:14.007Z,69.59
2023-02-25T18:03:15.998Z,70.12
2023-02-25T18:06:04.757Z,69.30
2023-02-25T18:09:02.760Z,69.92
2023-02-25T18:11:54.962Z,70.66
2023-02-25T18:14:48.037Z,70.40
2023-02-25T18:17:38.145Z,71.44
2023-02-25T18:20:29.198Z,72.06
2023-02-25T18:23:28.288Z,71.92
2023-02-25T18:26:18.596Z,71.65
2023-02-25T18:29:11.158Z,72.25
2023-02-25T18:31:59.799Z,71.86
2023-02-25T18:34:48.571Z,71.89
2023-02-25T18:37:37.170Z,71.58
2023-02-25T18:40:29.597Z,71.66
2023-02-25T18:43:19.764Z,72.06
2023-02-25T18:46:09.571Z,71.76
2023-02-25T18:48:58.187Z,72.36
2023-02-25T18:51:48.229Z,73.14
2023-02-25T18:54:36.686Z,74.01
2023-02-25T18:57:26.407Z,73.77
2023-02-25T19:00:16.525Z,73.71
2023-02-25T19:02:48.303Z,73.71
2023-02-25T19:05:17.159Z,73.37
2023-02-25T19:07:45.881Z,73.53
2023-02-25T19:10:16.917Z,73.81
2023-02-25T19:12:48.506Z,73.58
2023-02-25T19:15:19.152Z,73.63
2023-02-25T19:17:49.427Z,74.03
2023-02-25T19:20:19.796Z,74.27
2023-02-25T19:22:49.928Z,74.29
2023-02-25T19:25:20.093Z,74.65
2023-02-25T19:27:49.439Z,74.89
2023-02-25T19:30:19.953Z,74.82
2023-02-25T19:32:49.587Z,75.10
2023-02-25T19:35:18.765Z,75.65
2023-02-25T19:37:47.118Z,75.66
2023-02-25T19:40:16.979Z,75.86
2023-02-25T19:42:45.689Z,76.11
2023-02-25T19:45:16.395Z,76.03
2023-02-25T19:47:44.784Z,76.44
2023-02-25T19:50:15.358Z,74.36
2023-02-25T19:52:44.303Z,75.20
2023-02-25T19:55:14.195Z,74.02
2023-02-25T19:57:42.833Z,73.37
2023-02-25T20:00:14.883Z,73.54
2023-02-25T20:02:43.633Z,74.16
2023-02-25T20:05:14.531Z,73.83
2023-02-25T20:07:43.219Z,74.13
2023-02-25T20:10:13.661Z,74.41
2023-02-25T20:12:42.686Z,74.22
2023-02-25T20:15:29.414Z,74.33
2023-02-25T20:18:17.877Z,73.62
2023-02-25T20:21:08.026Z,72.61
2023-02-25T20:23:58.813Z,73.07
2023-02-25T20:26:47.379Z,71.71
2023-02-25T20:29:35.949Z,70.88
2023-02-25T20:32:24.533Z,69.56
2023-02-25T20:35:16.908Z,67.58
2023-02-25T20:38:16.945Z,66.21
2023-02-25T20:41:05.801Z,66.85
2023-02-25T20:43:54.479Z,65.40
2023-02-25T20:46:43.957Z,63.45
2023-02-25T20:49:32.906Z,63.89
2023-02-25T20:52:21.880Z,63.81
2023-02-25T20:55:12.197Z,62.98
2023-02-25T20:58:00.755Z,63.51
2023-02-25T21:00:49.275Z,63.39
2023-02-25T21:03:37.845Z,62.26
2023-02-25T21:06:27.261Z,61.52
2023-02-25T21:09:15.822Z,61.49
2023-02-25T21:12:06.924Z,60.55
2023-02-25T21:14:55.422Z,60.22
2023-02-25T21:17:43.952Z,58.67
2023-02-25T21:20:32.446Z,58.28
2023-02-25T21:23:20.986Z,57.09
2023-02-25T21:26:10.474Z,57.22
2023-02-25T21:29:00.329Z,58.08
2023-02-25T21:31:48.900Z,57.70
2023-02-25T21:34:37.773Z,57.42
2023-02-25T21:37:26.904Z,57.16
2023-02-25T21:40:15.518Z,57.11
2023-02-25T21:43:04.386Z,56.96
2023-02-25T21:45:58.419Z,57.17
2023-02-25T21:48:47.461Z,57.62
2023-02-25T21:51:35.968Z,57.22
2023-02-25T21:54:24.414Z,57.00
2023-02-25T21:57:13.004Z,57.38
2023-02-25T22:00:01.840Z,57.69
2023-02-25T22:02:51.769Z,58.22
2023-02-25T22:05:40.433Z,57.81
2023-02-25T22:08:28.956Z,57.55
2023-02-25T22:11:19.217Z,58.14
2023-02-25T22:14:09.418Z,57.31
2023-02-25T22:16:57.947Z,57.72
2023-02-25T22:19:47.805Z,58.36
2023-02-25T22:22:40.633Z,59.51
2023-02-25T22:25:29.135Z,58.81
2023-02-25T22:28:17.869Z,57.29
2023-02-25T22:31:06.941Z,56.79
2023-02-25T22:33:56.829Z,57.53
2023-02-25T22:36:47.689Z,57.40
2023-02-25T22:39:36.236Z,57.37
2023-02-25T22:42:24.948Z,57.55
2023-02-25T22:45:13.538Z,57.18
2023-02-25T22:48:02.048Z,57.25
2023-02-25T22:50:50.901Z,56.43
2023-02-25T22:53:41.825Z,57.37
2023-02-25T22:56:30.298Z,58.31
2023-02-25T22:59:19.763Z,57.69
2023-02-25T23:02:08.158Z,57.68
2023-02-25T23:04:56.632Z,57.88
2023-02-25T23:07:45.174Z,58.01
2023-02-25T23:10:36.079Z,58.78
2023-02-25T23:13:24.605Z,58.17
2023-02-25T23:16:13.912Z,58.16
2023-02-25T23:19:04.588Z,58.76
2023-02-25T23:21:53.131Z,57.90
2023-02-25T23:24:41.584Z,59.69
2023-02-25T23:27:31.685Z,57.85
2023-02-25T23:30:20.142Z,57.98
2023-02-25T23:33:08.786Z,58.37
2023-02-25T23:35:57.882Z,57.37
2023-02-25T23:38:46.299Z,58.26
2023-02-25T23:41:35.158Z,58.76
2023-02-25T23:44:25.285Z,59.09
2023-02-25T23:47:13.929Z,60.37
2023-02-25T23:50:02.553Z,59.88
2023-02-25T23:52:51.100Z,62.38
2023-02-25T23:55:39.564Z,66.22
2023-02-25T23:58:28.050Z,62.77
